Decoded Metar for LQSA (SARAJEVO in BOSNIA-HERCEGOVINA) (IATA:SJJ) | Meteo·Mobile Aviation Weather
aviador You're here:

LQSA Decoded Metar

SARAJEVO in BOSNIA-HERCEGOVINA
Report Time2018-09-19 22:00:00
UTC Time2018-09-19 22:09:32
Flight Rules vfr VFR
WindVRB at 02 kt
Visibility9999 m
Phenomena:N/A
Clouds:N/A
Expected CloudBase > 400 ft AGL from Temp-Dew spread
CeilingNone
Temp15°C (ISA +3)
Dew Point14°C (94% RH)
QNH1022 hPa
Density Alt1,988 ft
Elevation1,677 ft
Report Wrong Elevation
Raw Report
METAR LQSA 192200Z VRB02KT CAVOK 15/14 Q1022=

Extra information for LQSA:More info

Metar Taf Metar & Taf Last 4 Metars F.Rules Stats Wind Profile Meteogram Temp Stats Airport Information Weather charts Add Link Nearby VenuesMetar ALERT Operation Metar Decoded Social comments